sensor_id;sensor_type;location;lat;lon;timestamp;P1;durP1;ratioP1;P2;durP2;ratioP2
52974;SDS011;38839;45.186;5.720;2023-03-05T00:01:12;44.35;;;22.15;;
52974;SDS011;38839;45.186;5.720;2023-03-05T00:03:43;43.55;;;22.25;;
52974;SDS011;38839;45.186;5.720;2023-03-05T00:06:09;41.08;;;21.45;;
52974;SDS011;38839;45.186;5.720;2023-03-05T00:08:34;39.85;;;21.17;;
52974;SDS011;38839;45.186;5.720;2023-03-05T00:11:04;46.53;;;22.33;;
52974;SDS011;38839;45.186;5.720;2023-03-05T00:13:32;44.72;;;22.40;;
52974;SDS011;38839;45.186;5.720;2023-03-05T00:15:58;39.38;;;20.77;;
52974;SDS011;38839;45.186;5.720;2023-03-05T00:18:26;41.80;;;21.90;;
52974;SDS011;38839;45.186;5.720;2023-03-05T00:20:51;39.35;;;20.88;;
52974;SDS011;38839;45.186;5.720;2023-03-05T00:23:17;41.72;;;21.85;;
52974;SDS011;38839;45.186;5.720;2023-03-05T00:25:42;38.83;;;20.27;;
52974;SDS011;38839;45.186;5.720;2023-03-05T00:28:09;40.92;;;20.73;;
52974;SDS011;38839;45.186;5.720;2023-03-05T00:30:35;42.33;;;21.30;;
52974;SDS011;38839;45.186;5.720;2023-03-05T00:33:00;39.33;;;20.23;;
52974;SDS011;38839;45.186;5.720;2023-03-05T00:35:26;42.53;;;21.52;;
52974;SDS011;38839;45.186;5.720;2023-03-05T00:37:51;39.35;;;19.63;;
52974;SDS011;38839;45.186;5.720;2023-03-05T00:40:17;43.17;;;21.67;;
52974;SDS011;38839;45.186;5.720;2023-03-05T00:42:43;40.15;;;20.20;;
52974;SDS011;38839;45.186;5.720;2023-03-05T00:45:09;42.08;;;21.58;;
52974;SDS011;38839;45.186;5.720;2023-03-05T00:47:35;42.25;;;21.38;;
52974;SDS011;38839;45.186;5.720;2023-03-05T00:50:01;38.13;;;20.15;;
52974;SDS011;38839;45.186;5.720;2023-03-05T00:52:27;34.10;;;18.83;;
52974;SDS011;38839;45.186;5.720;2023-03-05T00:54:53;37.03;;;19.50;;
52974;SDS011;38839;45.186;5.720;2023-03-05T00:57:18;36.05;;;18.75;;
52974;SDS011;38839;45.186;5.720;2023-03-05T00:59:43;37.08;;;20.15;;
52974;SDS011;38839;45.186;5.720;2023-03-05T01:02:09;35.63;;;19.02;;
52974;SDS011;38839;45.186;5.720;2023-03-05T01:04:34;38.35;;;19.52;;
52974;SDS011;38839;45.186;5.720;2023-03-05T01:07:00;33.97;;;18.33;;
52974;SDS011;38839;45.186;5.720;2023-03-05T01:09:26;35.55;;;18.90;;
52974;SDS011;38839;45.186;5.720;2023-03-05T01:11:51;34.53;;;18.52;;
52974;SDS011;38839;45.186;5.720;2023-03-05T01:14:17;35.25;;;18.20;;
52974;SDS011;38839;45.186;5.720;2023-03-05T01:16:43;34.70;;;19.38;;
52974;SDS011;38839;45.186;5.720;2023-03-05T01:19:09;35.35;;;18.30;;
52974;SDS011;38839;45.186;5.720;2023-03-05T01:21:35;33.42;;;17.60;;
52974;SDS011;38839;45.186;5.720;2023-03-05T01:24:00;31.42;;;17.20;;
52974;SDS011;38839;45.186;5.720;2023-03-05T01:26:26;33.45;;;17.55;;
52974;SDS011;38839;45.186;5.720;2023-03-05T01:28:51;30.83;;;16.52;;
52974;SDS011;38839;45.186;5.720;2023-03-05T01:31:17;32.95;;;16.92;;
52974;SDS011;38839;45.186;5.720;2023-03-05T01:33:42;32.15;;;16.52;;
52974;SDS011;38839;45.186;5.720;2023-03-05T01:36:09;30.23;;;16.40;;
52974;SDS011;38839;45.186;5.720;2023-03-05T01:38:37;37.38;;;17.98;;
52974;SDS011;38839;45.186;5.720;2023-03-05T01:41:03;34.95;;;17.05;;
52974;SDS011;38839;45.186;5.720;2023-03-05T01:43:28;31.10;;;16.05;;
52974;SDS011;38839;45.186;5.720;2023-03-05T01:46:40;31.65;;;16.67;;
52974;SDS011;38839;45.186;5.720;2023-03-05T01:48:55;30.88;;;15.70;;
52974;SDS011;38839;45.186;5.720;2023-03-05T01:51:32;33.65;;;17.25;;
52974;SDS011;38839;45.186;5.720;2023-03-05T01:54:02;40.22;;;15.93;;
52974;SDS011;38839;45.186;5.720;2023-03-05T01:56:31;40.70;;;17.15;;
52974;SDS011;38839;45.186;5.720;2023-03-05T01:58:57;35.90;;;17.25;;
52974;SDS011;38839;45.186;5.720;2023-03-05T02:03:54;31.23;;;15.23;;
52974;SDS011;38839;45.186;5.720;2023-03-05T02:06:20;31.38;;;15.85;;
52974;SDS011;38839;45.186;5.720;2023-03-05T02:08:45;31.85;;;15.18;;
52974;SDS011;38839;45.186;5.720;2023-03-05T02:11:10;31.73;;;15.35;;
52974;SDS011;38839;45.186;5.720;2023-03-05T02:13:36;29.20;;;15.18;;
52974;SDS011;38839;45.186;5.720;2023-03-05T02:16:04;28.05;;;16.02;;
52974;SDS011;38839;45.186;5.720;2023-03-05T02:18:30;32.17;;;15.48;;
52974;SDS011;38839;45.186;5.720;2023-03-05T02:23:22;30.27;;;14.95;;
52974;SDS011;38839;45.186;5.720;2023-03-05T02:25:50;28.48;;;14.10;;
52974;SDS011;38839;45.186;5.720;2023-03-05T02:30:44;29.23;;;14.77;;
52974;SDS011;38839;45.186;5.720;2023-03-05T02:33:10;28.90;;;13.65;;
52974;SDS011;38839;45.186;5.720;2023-03-05T02:35:37;29.33;;;14.32;;
52974;SDS011;38839;45.186;5.720;2023-03-05T02:38:02;25.58;;;12.98;;
52974;SDS011;38839;45.186;5.720;2023-03-05T02:40:27;25.75;;;13.48;;
52974;SDS011;38839;45.186;5.720;2023-03-05T02:42:53;28.95;;;13.30;;
52974;SDS011;38839;45.186;5.720;2023-03-05T02:45:18;23.77;;;12.65;;
52974;SDS011;38839;45.186;5.720;2023-03-05T02:47:43;27.75;;;13.00;;
52974;SDS011;38839;45.186;5.720;2023-03-05T02:50:09;26.42;;;12.80;;
52974;SDS011;38839;45.186;5.720;2023-03-05T02:52:36;31.33;;;13.40;;
52974;SDS011;38839;45.186;5.720;2023-03-05T02:55:01;29.90;;;12.82;;
52974;SDS011;38839;45.186;5.720;2023-03-05T02:57:27;21.60;;;11.02;;
52974;SDS011;38839;45.186;5.720;2023-03-05T02:59:52;26.15;;;12.60;;
52974;SDS011;38839;45.186;5.720;2023-03-05T03:02:18;23.58;;;10.90;;
52974;SDS011;38839;45.186;5.720;2023-03-05T03:04:43;24.38;;;11.10;;
52974;SDS011;38839;45.186;5.720;2023-03-05T03:07:09;26.48;;;12.25;;
52974;SDS011;38839;45.186;5.720;2023-03-05T03:09:35;24.33;;;12.23;;
52974;SDS011;38839;45.186;5.720;2023-03-05T03:12:01;27.65;;;13.27;;
52974;SDS011;38839;45.186;5.720;2023-03-05T03:14:29;25.98;;;12.52;;
52974;SDS011;38839;45.186;5.720;2023-03-05T03:17:03;27.17;;;12.15;;
52974;SDS011;38839;45.186;5.720;2023-03-05T03:19:33;28.90;;;13.00;;
52974;SDS011;38839;45.186;5.720;2023-03-05T03:22:00;26.35;;;12.25;;
52974;SDS011;38839;45.186;5.720;2023-03-05T03:24:25;28.45;;;12.98;;
52974;SDS011;38839;45.186;5.720;2023-03-05T03:26:51;32.30;;;13.43;;
52974;SDS011;38839;45.186;5.720;2023-03-05T03:29:16;33.97;;;14.27;;
52974;SDS011;38839;45.186;5.720;2023-03-05T03:31:42;30.02;;;13.13;;
52974;SDS011;38839;45.186;5.720;2023-03-05T03:34:10;30.15;;;14.43;;
52974;SDS011;38839;45.186;5.720;2023-03-05T03:39:05;28.50;;;12.75;;
52974;SDS011;38839;45.186;5.720;2023-03-05T03:41:31;31.20;;;14.85;;
52974;SDS011;38839;45.186;5.720;2023-03-05T03:43:57;28.83;;;13.00;;
52974;SDS011;38839;45.186;5.720;2023-03-05T03:46:22;28.40;;;13.20;;
52974;SDS011;38839;45.186;5.720;2023-03-05T03:48:51;27.75;;;13.43;;
52974;SDS011;38839;45.186;5.720;2023-03-05T03:51:16;26.92;;;12.57;;
52974;SDS011;38839;45.186;5.720;2023-03-05T03:53:42;29.83;;;14.10;;
52974;SDS011;38839;45.186;5.720;2023-03-05T03:56:07;28.73;;;13.25;;
52974;SDS011;38839;45.186;5.720;2023-03-05T03:58:33;34.13;;;14.88;;
52974;SDS011;38839;45.186;5.720;2023-03-05T04:00:58;31.02;;;14.18;;
52974;SDS011;38839;45.186;5.720;2023-03-05T04:03:23;26.35;;;13.15;;
52974;SDS011;38839;45.186;5.720;2023-03-05T04:05:49;31.63;;;13.63;;
52974;SDS011;38839;45.186;5.720;2023-03-05T04:08:14;30.73;;;14.15;;
52974;SDS011;38839;45.186;5.720;2023-03-05T04:10:40;30.50;;;13.65;;
52974;SDS011;38839;45.186;5.720;2023-03-05T04:13:05;29.45;;;12.55;;
52974;SDS011;38839;45.186;5.720;2023-03-05T04:15:31;31.95;;;13.95;;
52974;SDS011;38839;45.186;5.720;2023-03-05T04:17:57;32.50;;;14.48;;
52974;SDS011;38839;45.186;5.720;2023-03-05T04:20:22;33.53;;;14.75;;
52974;SDS011;38839;45.186;5.720;2023-03-05T04:22:48;30.90;;;13.80;;
52974;SDS011;38839;45.186;5.720;2023-03-05T04:25:14;32.80;;;14.38;;
52974;SDS011;38839;45.186;5.720;2023-03-05T04:27:39;29.92;;;13.23;;
52974;SDS011;38839;45.186;5.720;2023-03-05T04:30:05;29.95;;;14.45;;
52974;SDS011;38839;45.186;5.720;2023-03-05T04:32:32;30.95;;;14.27;;
52974;SDS011;38839;45.186;5.720;2023-03-05T04:34:57;32.67;;;14.50;;
52974;SDS011;38839;45.186;5.720;2023-03-05T04:37:23;28.52;;;13.70;;
52974;SDS011;38839;45.186;5.720;2023-03-05T04:39:50;28.55;;;13.80;;
52974;SDS011;38839;45.186;5.720;2023-03-05T04:42:16;30.20;;;14.15;;
52974;SDS011;38839;45.186;5.720;2023-03-05T04:44:43;31.77;;;15.30;;
52974;SDS011;38839;45.186;5.720;2023-03-05T04:47:08;29.48;;;14.23;;
52974;SDS011;38839;45.186;5.720;2023-03-05T04:49:34;29.00;;;13.75;;
52974;SDS011;38839;45.186;5.720;2023-03-05T04:51:59;31.42;;;15.43;;
52974;SDS011;38839;45.186;5.720;2023-03-05T04:54:24;34.08;;;14.52;;
52974;SDS011;38839;45.186;5.720;2023-03-05T04:56:50;29.98;;;13.90;;
52974;SDS011;38839;45.186;5.720;2023-03-05T04:59:15;36.53;;;15.85;;
52974;SDS011;38839;45.186;5.720;2023-03-05T05:01:40;33.75;;;15.10;;
52974;SDS011;38839;45.186;5.720;2023-03-05T05:04:07;30.17;;;14.60;;
52974;SDS011;38839;45.186;5.720;2023-03-05T05:06:32;30.90;;;14.73;;
52974;SDS011;38839;45.186;5.720;2023-03-05T05:08:58;32.97;;;16.10;;
52974;SDS011;38839;45.186;5.720;2023-03-05T05:11:23;30.77;;;14.13;;
52974;SDS011;38839;45.186;5.720;2023-03-05T05:13:48;29.90;;;13.88;;
52974;SDS011;38839;45.186;5.720;2023-03-05T05:16:14;31.95;;;15.32;;
52974;SDS011;38839;45.186;5.720;2023-03-05T05:18:40;31.45;;;13.70;;
52974;SDS011;38839;45.186;5.720;2023-03-05T05:21:06;36.58;;;15.27;;
52974;SDS011;38839;45.186;5.720;2023-03-05T05:23:33;37.10;;;14.63;;
52974;SDS011;38839;45.186;5.720;2023-03-05T05:25:59;29.20;;;14.88;;
52974;SDS011;38839;45.186;5.720;2023-03-05T05:28:25;34.03;;;15.18;;
52974;SDS011;38839;45.186;5.720;2023-03-05T05:30:51;31.90;;;14.85;;
52974;SDS011;38839;45.186;5.720;2023-03-05T05:33:16;35.22;;;14.52;;
52974;SDS011;38839;45.186;5.720;2023-03-05T05:35:42;34.72;;;15.68;;
52974;SDS011;38839;45.186;5.720;2023-03-05T05:38:07;35.60;;;15.48;;
52974;SDS011;38839;45.186;5.720;2023-03-05T05:40:32;35.03;;;15.15;;
52974;SDS011;38839;45.186;5.720;2023-03-05T05:42:58;36.17;;;15.65;;
52974;SDS011;38839;45.186;5.720;2023-03-05T05:45:23;33.55;;;15.38;;
52974;SDS011;38839;45.186;5.720;2023-03-05T05:47:49;36.72;;;16.25;;
52974;SDS011;38839;45.186;5.720;2023-03-05T05:50:14;41.80;;;16.50;;
52974;SDS011;38839;45.186;5.720;2023-03-05T05:52:40;28.98;;;13.23;;
52974;SDS011;38839;45.186;5.720;2023-03-05T05:55:06;34.38;;;15.15;;
52974;SDS011;38839;45.186;5.720;2023-03-05T05:57:32;40.08;;;15.38;;
52974;SDS011;38839;45.186;5.720;2023-03-05T05:59:58;33.70;;;14.10;;
52974;SDS011;38839;45.186;5.720;2023-03-05T06:02:23;36.63;;;15.32;;
52974;SDS011;38839;45.186;5.720;2023-03-05T06:04:51;34.88;;;14.77;;
52974;SDS011;38839;45.186;5.720;2023-03-05T06:07:16;36.10;;;16.02;;
52974;SDS011;38839;45.186;5.720;2023-03-05T06:09:41;37.50;;;16.88;;
52974;SDS011;38839;45.186;5.720;2023-03-05T06:12:07;39.95;;;16.77;;
52974;SDS011;38839;45.186;5.720;2023-03-05T06:14:32;32.17;;;14.70;;
52974;SDS011;38839;45.186;5.720;2023-03-05T06:16:58;32.90;;;15.00;;
52974;SDS011;38839;45.186;5.720;2023-03-05T06:19:23;35.10;;;16.42;;
52974;SDS011;38839;45.186;5.720;2023-03-05T06:21:48;33.78;;;15.77;;
52974;SDS011;38839;45.186;5.720;2023-03-05T06:24:14;37.00;;;17.30;;
52974;SDS011;38839;45.186;5.720;2023-03-05T06:26:39;39.40;;;16.85;;
52974;SDS011;38839;45.186;5.720;2023-03-05T06:29:05;39.72;;;17.77;;
52974;SDS011;38839;45.186;5.720;2023-03-05T06:31:30;34.90;;;15.27;;
52974;SDS011;38839;45.186;5.720;2023-03-05T06:33:57;32.17;;;15.38;;
52974;SDS011;38839;45.186;5.720;2023-03-05T06:36:27;36.15;;;16.48;;
52974;SDS011;38839;45.186;5.720;2023-03-05T06:38:53;36.25;;;15.48;;
52974;SDS011;38839;45.186;5.720;2023-03-05T06:41:20;36.95;;;16.73;;
52974;SDS011;38839;45.186;5.720;2023-03-05T06:43:55;33.22;;;16.15;;
52974;SDS011;38839;45.186;5.720;2023-03-05T06:46:23;35.60;;;15.73;;
52974;SDS011;38839;45.186;5.720;2023-03-05T06:48:57;38.13;;;15.77;;
52974;SDS011;38839;45.186;5.720;2023-03-05T06:51:31;38.97;;;16.23;;
52974;SDS011;38839;45.186;5.720;2023-03-05T06:53:59;32.08;;;15.50;;
52974;SDS011;38839;45.186;5.720;2023-03-05T06:56:27;39.13;;;17.13;;
52974;SDS011;38839;45.186;5.720;2023-03-05T06:58:55;41.22;;;17.33;;
52974;SDS011;38839;45.186;5.720;2023-03-05T07:01:21;38.22;;;16.13;;
52974;SDS011;38839;45.186;5.720;2023-03-05T07:03:51;33.65;;;16.55;;
52974;SDS011;38839;45.186;5.720;2023-03-05T07:06:22;37.03;;;15.88;;
52974;SDS011;38839;45.186;5.720;2023-03-05T07:08:48;39.65;;;15.82;;
52974;SDS011;38839;45.186;5.720;2023-03-05T07:11:15;41.67;;;17.08;;
52974;SDS011;38839;45.186;5.720;2023-03-05T07:13:44;38.53;;;16.95;;
52974;SDS011;38839;45.186;5.720;2023-03-05T07:16:17;36.28;;;16.27;;
52974;SDS011;38839;45.186;5.720;2023-03-05T07:18:47;34.55;;;15.73;;
52974;SDS011;38839;45.186;5.720;2023-03-05T07:21:14;37.03;;;17.17;;
52974;SDS011;38839;45.186;5.720;2023-03-05T07:23:42;36.15;;;16.08;;
52974;SDS011;38839;45.186;5.720;2023-03-05T07:26:07;37.47;;;16.17;;
52974;SDS011;38839;45.186;5.720;2023-03-05T07:28:34;39.63;;;17.05;;
52974;SDS011;38839;45.186;5.720;2023-03-05T07:31:03;37.67;;;17.67;;
52974;SDS011;38839;45.186;5.720;2023-03-05T07:33:30;34.08;;;16.25;;
52974;SDS011;38839;45.186;5.720;2023-03-05T07:35:56;37.60;;;16.35;;
52974;SDS011;38839;45.186;5.720;2023-03-05T07:38:22;43.90;;;18.30;;
52974;SDS011;38839;45.186;5.720;2023-03-05T07:40:47;36.35;;;16.13;;
52974;SDS011;38839;45.186;5.720;2023-03-05T07:43:13;33.30;;;15.30;;
52974;SDS011;38839;45.186;5.720;2023-03-05T07:45:39;35.50;;;15.95;;
52974;SDS011;38839;45.186;5.720;2023-03-05T07:48:11;34.70;;;16.50;;
52974;SDS011;38839;45.186;5.720;2023-03-05T07:50:38;35.20;;;16.60;;
52974;SDS011;38839;45.186;5.720;2023-03-05T07:53:04;34.58;;;16.83;;
52974;SDS011;38839;45.186;5.720;2023-03-05T07:55:30;34.25;;;15.35;;
52974;SDS011;38839;45.186;5.720;2023-03-05T07:57:55;37.25;;;17.20;;
52974;SDS011;38839;45.186;5.720;2023-03-05T08:00:20;38.67;;;17.02;;
52974;SDS011;38839;45.186;5.720;2023-03-05T08:02:46;33.42;;;15.30;;
52974;SDS011;38839;45.186;5.720;2023-03-05T08:05:12;36.70;;;17.33;;
52974;SDS011;38839;45.186;5.720;2023-03-05T08:07:37;40.80;;;17.60;;
52974;SDS011;38839;45.186;5.720;2023-03-05T08:10:03;36.38;;;16.83;;
52974;SDS011;38839;45.186;5.720;2023-03-05T08:12:29;39.83;;;17.55;;
52974;SDS011;38839;45.186;5.720;2023-03-05T08:14:54;36.35;;;17.75;;
52974;SDS011;38839;45.186;5.720;2023-03-05T08:17:19;38.92;;;17.48;;
52974;SDS011;38839;45.186;5.720;2023-03-05T08:19:45;35.53;;;17.08;;
52974;SDS011;38839;45.186;5.720;2023-03-05T08:22:10;36.92;;;17.33;;
52974;SDS011;38839;45.186;5.720;2023-03-05T08:24:36;34.63;;;16.52;;
52974;SDS011;38839;45.186;5.720;2023-03-05T08:27:01;37.40;;;18.23;;
52974;SDS011;38839;45.186;5.720;2023-03-05T08:29:26;35.58;;;16.55;;
52974;SDS011;38839;45.186;5.720;2023-03-05T08:31:52;40.25;;;17.67;;
52974;SDS011;38839;45.186;5.720;2023-03-05T08:34:18;40.33;;;19.08;;
52974;SDS011;38839;45.186;5.720;2023-03-05T08:36:45;40.95;;;18.75;;
52974;SDS011;38839;45.186;5.720;2023-03-05T08:39:11;35.67;;;18.23;;
52974;SDS011;38839;45.186;5.720;2023-03-05T08:41:36;43.83;;;18.92;;
52974;SDS011;38839;45.186;5.720;2023-03-05T08:44:01;36.42;;;17.75;;
52974;SDS011;38839;45.186;5.720;2023-03-05T08:46:27;37.08;;;19.30;;
52974;SDS011;38839;45.186;5.720;2023-03-05T08:48:53;37.10;;;17.58;;
52974;SDS011;38839;45.186;5.720;2023-03-05T08:51:20;40.33;;;19.13;;
52974;SDS011;38839;45.186;5.720;2023-03-05T08:53:49;43.92;;;19.65;;
52974;SDS011;38839;45.186;5.720;2023-03-05T08:56:16;37.08;;;17.52;;
52974;SDS011;38839;45.186;5.720;2023-03-05T08:58:42;38.80;;;19.70;;
52974;SDS011;38839;45.186;5.720;2023-03-05T09:01:08;38.53;;;19.40;;
52974;SDS011;38839;45.186;5.720;2023-03-05T09:03:34;37.95;;;19.92;;
52974;SDS011;38839;45.186;5.720;2023-03-05T09:06:01;37.97;;;19.15;;
52974;SDS011;38839;45.186;5.720;2023-03-05T09:08:28;37.83;;;19.38;;
52974;SDS011;38839;45.186;5.720;2023-03-05T09:10:54;39.95;;;18.48;;
52974;SDS011;38839;45.186;5.720;2023-03-05T09:13:19;42.13;;;21.05;;
52974;SDS011;38839;45.186;5.720;2023-03-05T09:15:44;38.25;;;18.85;;
52974;SDS011;38839;45.186;5.720;2023-03-05T09:18:10;36.63;;;19.77;;
52974;SDS011;38839;45.186;5.720;2023-03-05T09:20:35;38.47;;;20.42;;
52974;SDS011;38839;45.186;5.720;2023-03-05T09:23:01;39.42;;;19.05;;
52974;SDS011;38839;45.186;5.720;2023-03-05T09:25:27;36.53;;;18.48;;
52974;SDS011;38839;45.186;5.720;2023-03-05T09:27:53;36.70;;;20.85;;
52974;SDS011;38839;45.186;5.720;2023-03-05T09:30:18;33.78;;;18.35;;
52974;SDS011;38839;45.186;5.720;2023-03-05T09:32:44;36.47;;;20.25;;
52974;SDS011;38839;45.186;5.720;2023-03-05T09:35:10;38.65;;;18.67;;
52974;SDS011;38839;45.186;5.720;2023-03-05T09:37:35;34.35;;;18.63;;
52974;SDS011;38839;45.186;5.720;2023-03-05T09:40:01;33.92;;;18.38;;
52974;SDS011;38839;45.186;5.720;2023-03-05T09:45:29;32.85;;;18.23;;
52974;SDS011;38839;45.186;5.720;2023-03-05T09:50:38;34.58;;;17.65;;
52974;SDS011;38839;45.186;5.720;2023-03-05T09:56:14;40.88;;;19.67;;
52974;SDS011;38839;45.186;5.720;2023-03-05T10:01:47;41.33;;;20.00;;
52974;SDS011;38839;45.186;5.720;2023-03-05T10:04:20;37.88;;;19.27;;
52974;SDS011;38839;45.186;5.720;2023-03-05T10:06:58;40.45;;;21.02;;
52974;SDS011;38839;45.186;5.720;2023-03-05T10:14:44;37.08;;;19.15;;
52974;SDS011;38839;45.186;5.720;2023-03-05T10:25:23;38.55;;;18.52;;
52974;SDS011;38839;45.186;5.720;2023-03-05T10:28:16;40.92;;;19.50;;
52974;SDS011;38839;45.186;5.720;2023-03-05T10:30:52;39.15;;;18.88;;
52974;SDS011;38839;45.186;5.720;2023-03-05T10:33:45;38.55;;;19.92;;
52974;SDS011;38839;45.186;5.720;2023-03-05T10:36:26;38.55;;;18.17;;
52974;SDS011;38839;45.186;5.720;2023-03-05T10:41:56;36.35;;;19.58;;
52974;SDS011;38839;45.186;5.720;2023-03-05T10:44:35;38.05;;;19.92;;
52974;SDS011;38839;45.186;5.720;2023-03-05T10:47:23;41.20;;;19.48;;
52974;SDS011;38839;45.186;5.720;2023-03-05T10:50:26;38.33;;;19.33;;
52974;SDS011;38839;45.186;5.720;2023-03-05T10:55:50;41.83;;;19.60;;
52974;SDS011;38839;45.186;5.720;2023-03-05T10:58:20;38.47;;;19.13;;
52974;SDS011;38839;45.186;5.720;2023-03-05T11:01:01;42.20;;;20.45;;
52974;SDS011;38839;45.186;5.720;2023-03-05T11:03:45;39.90;;;19.98;;
52974;SDS011;38839;45.186;5.720;2023-03-05T11:06:13;41.38;;;19.88;;
52974;SDS011;38839;45.186;5.720;2023-03-05T11:08:39;39.75;;;21.48;;
52974;SDS011;38839;45.186;5.720;2023-03-05T11:13:54;44.15;;;21.70;;
52974;SDS011;38839;45.186;5.720;2023-03-05T11:16:27;45.22;;;21.52;;
52974;SDS011;38839;45.186;5.720;2023-03-05T11:19:09;40.75;;;20.60;;
52974;SDS011;38839;45.186;5.720;2023-03-05T11:21:38;41.03;;;20.50;;
52974;SDS011;38839;45.186;5.720;2023-03-05T11:24:04;40.35;;;20.83;;
52974;SDS011;38839;45.186;5.720;2023-03-05T11:26:33;46.78;;;20.85;;
52974;SDS011;38839;45.186;5.720;2023-03-05T11:28:59;44.03;;;21.50;;
52974;SDS011;38839;45.186;5.720;2023-03-05T11:31:31;41.20;;;21.55;;
52974;SDS011;38839;45.186;5.720;2023-03-05T11:44:03;36.10;;;19.27;;
52974;SDS011;38839;45.186;5.720;2023-03-05T11:49:37;36.78;;;19.83;;
52974;SDS011;38839;45.186;5.720;2023-03-05T12:00:50;38.75;;;19.85;;
52974;SDS011;38839;45.186;5.720;2023-03-05T12:03:28;36.97;;;18.83;;
52974;SDS011;38839;45.186;5.720;2023-03-05T12:05:59;41.03;;;18.45;;
52974;SDS011;38839;45.186;5.720;2023-03-05T12:08:34;33.42;;;18.38;;
52974;SDS011;38839;45.186;5.720;2023-03-05T12:11:11;35.45;;;17.63;;
52974;SDS011;38839;45.186;5.720;2023-03-05T12:14:09;39.08;;;19.55;;
52974;SDS011;38839;45.186;5.720;2023-03-05T12:22:14;33.22;;;17.13;;
52974;SDS011;38839;45.186;5.720;2023-03-05T12:24:43;38.60;;;18.55;;
52974;SDS011;38839;45.186;5.720;2023-03-05T12:27:09;36.42;;;19.55;;
52974;SDS011;38839;45.186;5.720;2023-03-05T12:29:45;36.80;;;19.85;;
52974;SDS011;38839;45.186;5.720;2023-03-05T12:34:47;36.28;;;19.00;;
52974;SDS011;38839;45.186;5.720;2023-03-05T12:47:39;37.10;;;17.23;;
52974;SDS011;38839;45.186;5.720;2023-03-05T12:53:03;36.13;;;18.60;;
52974;SDS011;38839;45.186;5.720;2023-03-05T12:55:48;35.13;;;19.27;;
52974;SDS011;38839;45.186;5.720;2023-03-05T12:58:32;31.02;;;16.85;;
52974;SDS011;38839;45.186;5.720;2023-03-05T13:01:11;38.50;;;18.55;;
52974;SDS011;38839;45.186;5.720;2023-03-05T13:03:46;36.58;;;17.05;;
52974;SDS011;38839;45.186;5.720;2023-03-05T13:08:55;35.95;;;19.52;;
52974;SDS011;38839;45.186;5.720;2023-03-05T13:11:23;33.35;;;16.70;;
52974;SDS011;38839;45.186;5.720;2023-03-05T13:13:49;34.47;;;18.38;;
52974;SDS011;38839;45.186;5.720;2023-03-05T13:19:03;39.58;;;18.15;;
52974;SDS011;38839;45.186;5.720;2023-03-05T13:21:38;34.03;;;18.42;;
52974;SDS011;38839;45.186;5.720;2023-03-05T13:24:12;32.83;;;17.27;;
52974;SDS011;38839;45.186;5.720;2023-03-05T13:26:41;32.05;;;17.52;;
52974;SDS011;38839;45.186;5.720;2023-03-05T13:29:11;32.08;;;17.35;;
52974;SDS011;38839;45.186;5.720;2023-03-05T13:34:14;31.02;;;17.23;;
52974;SDS011;38839;45.186;5.720;2023-03-05T13:37:06;33.90;;;17.60;;
52974;SDS011;38839;45.186;5.720;2023-03-05T13:42:25;30.77;;;16.50;;
52974;SDS011;38839;45.186;5.720;2023-03-05T13:44:56;35.53;;;18.73;;
52974;SDS011;38839;45.186;5.720;2023-03-05T13:47:22;32.80;;;18.00;;
52974;SDS011;38839;45.186;5.720;2023-03-05T13:49:56;32.78;;;17.13;;
52974;SDS011;38839;45.186;5.720;2023-03-05T13:52:42;33.03;;;18.50;;
52974;SDS011;38839;45.186;5.720;2023-03-05T13:55:11;32.75;;;17.30;;
52974;SDS011;38839;45.186;5.720;2023-03-05T13:57:42;31.65;;;17.70;;
52974;SDS011;38839;45.186;5.720;2023-03-05T14:03:22;33.00;;;18.45;;
52974;SDS011;38839;45.186;5.720;2023-03-05T14:05:51;36.03;;;18.40;;
52974;SDS011;38839;45.186;5.720;2023-03-05T14:08:21;32.13;;;17.58;;
52974;SDS011;38839;45.186;5.720;2023-03-05T14:10:49;33.83;;;17.38;;
52974;SDS011;38839;45.186;5.720;2023-03-05T14:13:17;33.85;;;17.42;;
52974;SDS011;38839;45.186;5.720;2023-03-05T14:16:06;33.53;;;17.55;;
52974;SDS011;38839;45.186;5.720;2023-03-05T14:18:34;35.03;;;18.58;;
52974;SDS011;38839;45.186;5.720;2023-03-05T14:21:04;37.70;;;18.65;;
52974;SDS011;38839;45.186;5.720;2023-03-05T14:23:37;32.15;;;17.85;;
52974;SDS011;38839;45.186;5.720;2023-03-05T14:39:54;34.35;;;17.25;;
52974;SDS011;38839;45.186;5.720;2023-03-05T14:42:31;32.28;;;17.45;;
52974;SDS011;38839;45.186;5.720;2023-03-05T14:47:40;35.93;;;18.40;;
52974;SDS011;38839;45.186;5.720;2023-03-05T14:50:07;39.60;;;17.25;;
52974;SDS011;38839;45.186;5.720;2023-03-05T14:52:35;34.05;;;18.30;;
52974;SDS011;38839;45.186;5.720;2023-03-05T14:55:01;32.50;;;16.83;;
52974;SDS011;38839;45.186;5.720;2023-03-05T14:57:27;38.35;;;18.90;;
52974;SDS011;38839;45.186;5.720;2023-03-05T14:59:55;31.70;;;16.30;;
52974;SDS011;38839;45.186;5.720;2023-03-05T15:02:22;34.13;;;17.63;;
52974;SDS011;38839;45.186;5.720;2023-03-05T15:04:49;34.95;;;18.02;;
52974;SDS011;38839;45.186;5.720;2023-03-05T15:07:30;34.67;;;18.10;;
52974;SDS011;38839;45.186;5.720;2023-03-05T15:09:56;30.92;;;17.00;;
52974;SDS011;38839;45.186;5.720;2023-03-05T15:12:21;32.20;;;17.00;;
52974;SDS011;38839;45.186;5.720;2023-03-05T15:14:52;30.27;;;15.80;;
52974;SDS011;38839;45.186;5.720;2023-03-05T15:17:22;34.60;;;16.65;;
52974;SDS011;38839;45.186;5.720;2023-03-05T15:19:49;30.27;;;15.77;;
52974;SDS011;38839;45.186;5.720;2023-03-05T15:22:14;39.92;;;16.92;;
52974;SDS011;38839;45.186;5.720;2023-03-05T15:24:40;32.47;;;17.65;;
52974;SDS011;38839;45.186;5.720;2023-03-05T15:27:06;33.60;;;17.48;;
52974;SDS011;38839;45.186;5.720;2023-03-05T15:29:32;35.17;;;16.83;;
52974;SDS011;38839;45.186;5.720;2023-03-05T15:31:58;31.48;;;16.27;;
52974;SDS011;38839;45.186;5.720;2023-03-05T15:34:25;33.50;;;16.55;;
52974;SDS011;38839;45.186;5.720;2023-03-05T15:36:50;33.30;;;16.50;;
52974;SDS011;38839;45.186;5.720;2023-03-05T15:39:16;35.22;;;16.80;;
52974;SDS011;38839;45.186;5.720;2023-03-05T15:41:41;29.88;;;15.85;;
52974;SDS011;38839;45.186;5.720;2023-03-05T15:44:06;31.80;;;17.13;;
52974;SDS011;38839;45.186;5.720;2023-03-05T15:46:33;37.33;;;16.95;;
52974;SDS011;38839;45.186;5.720;2023-03-05T15:48:59;33.08;;;17.33;;
52974;SDS011;38839;45.186;5.720;2023-03-05T15:51:24;36.08;;;16.17;;
52974;SDS011;38839;45.186;5.720;2023-03-05T15:53:49;30.35;;;16.08;;
52974;SDS011;38839;45.186;5.720;2023-03-05T15:56:15;35.72;;;17.42;;
52974;SDS011;38839;45.186;5.720;2023-03-05T15:58:42;32.08;;;16.92;;
52974;SDS011;38839;45.186;5.720;2023-03-05T16:01:08;34.47;;;16.83;;
52974;SDS011;38839;45.186;5.720;2023-03-05T16:03:34;35.22;;;17.70;;
52974;SDS011;38839;45.186;5.720;2023-03-05T16:06:00;32.13;;;16.42;;
52974;SDS011;38839;45.186;5.720;2023-03-05T16:08:26;31.95;;;16.70;;
52974;SDS011;38839;45.186;5.720;2023-03-05T16:10:52;32.30;;;16.20;;
52974;SDS011;38839;45.186;5.720;2023-03-05T16:13:17;32.97;;;16.17;;
52974;SDS011;38839;45.186;5.720;2023-03-05T16:15:43;27.95;;;16.05;;
52974;SDS011;38839;45.186;5.720;2023-03-05T16:18:10;34.95;;;17.23;;
52974;SDS011;38839;45.186;5.720;2023-03-05T16:20:37;34.47;;;17.73;;
52974;SDS011;38839;45.186;5.720;2023-03-05T16:23:03;37.28;;;17.38;;